createdAt,value
2018-05-09T00:00:41.965Z,86.00
2018-05-09T00:03:08.418Z,86.20
2018-05-09T00:05:34.894Z,87.20
2018-05-09T00:08:01.464Z,88.10
2018-05-09T00:10:27.932Z,88.40
2018-05-09T00:12:54.360Z,88.00
2018-05-09T00:15:20.832Z,88.10
2018-05-09T00:17:47.299Z,89.20
2018-05-09T00:20:14.440Z,90.30
2018-05-09T00:25:34.313Z,90.40
2018-05-09T00:28:00.654Z,89.50
2018-05-09T00:30:27.128Z,89.20
2018-05-09T00:32:53.523Z,88.70
2018-05-09T00:35:19.868Z,88.90
2018-05-09T00:37:46.256Z,89.30
2018-05-09T00:40:12.701Z,88.60
2018-05-09T00:42:39.068Z,88.60
2018-05-09T00:45:05.494Z,87.90
2018-05-09T00:47:31.919Z,88.70
2018-05-09T00:49:58.329Z,88.30
2018-05-09T00:52:24.740Z,87.70
2018-05-09T00:54:51.184Z,87.70
2018-05-09T00:57:17.524Z,87.40
2018-05-09T00:59:44.092Z,87.70
2018-05-09T01:02:10.528Z,88.20
2018-05-09T01:04:37.046Z,89.00
2018-05-09T01:07:03.621Z,88.50
2018-05-09T01:09:30.827Z,88.90
2018-05-09T01:11:57.242Z,88.80
2018-05-09T01:14:23.817Z,88.80
2018-05-09T01:16:50.286Z,87.20
2018-05-09T01:19:16.818Z,88.20
2018-05-09T01:21:43.332Z,86.90
2018-05-09T01:24:09.845Z,86.80
2018-05-09T01:26:36.266Z,86.60
2018-05-09T01:29:02.762Z,86.20
2018-05-09T01:31:29.158Z,86.90
2018-05-09T01:33:55.528Z,86.90
2018-05-09T01:36:21.910Z,86.70
2018-05-09T01:38:56.236Z,86.60
2018-05-09T01:41:22.699Z,87.20
2018-05-09T01:43:49.846Z,87.30
2018-05-09T01:46:16.303Z,87.30
2018-05-09T01:48:43.467Z,88.10
2018-05-09T01:51:10.033Z,88.20
2018-05-09T01:53:36.441Z,88.40
2018-05-09T01:56:02.852Z,88.90
2018-05-09T01:58:29.348Z,89.10
2018-05-09T02:00:55.771Z,89.40
2018-05-09T02:03:22.232Z,89.40
2018-05-09T02:05:48.782Z,90.00
2018-05-09T02:08:15.280Z,89.90
2018-05-09T02:10:41.582Z,90.00
2018-05-09T02:13:07.936Z,90.30
2018-05-09T02:15:35.141Z,90.70
2018-05-09T02:18:01.628Z,90.60
2018-05-09T02:20:31.384Z,91.10
2018-05-09T02:22:58.448Z,91.50
2018-05-09T02:25:24.769Z,91.40
2018-05-09T02:27:51.204Z,91.30
2018-05-09T02:30:17.606Z,91.10
2018-05-09T02:32:44.104Z,91.10
2018-05-09T02:35:10.505Z,91.30
2018-05-09T02:37:37.003Z,91.50
2018-05-09T02:40:03.367Z,91.60
2018-05-09T02:42:29.919Z,91.60
2018-05-09T02:44:56.377Z,91.80
2018-05-09T02:47:22.735Z,91.80
2018-05-09T02:49:49.229Z,92.00
2018-05-09T02:52:15.522Z,91.90
2018-05-09T02:54:42.658Z,92.10
2018-05-09T02:57:09.836Z,92.20
2018-05-09T02:59:36.985Z,92.10
2018-05-09T03:02:04.076Z,92.20
2018-05-09T03:04:30.490Z,92.20
2018-05-09T03:06:56.916Z,92.30
2018-05-09T03:09:23.325Z,92.30
2018-05-09T03:11:50.459Z,92.70
2018-05-09T03:14:16.877Z,92.70
2018-05-09T03:16:43.183Z,92.80
2018-05-09T03:19:10.302Z,93.10
2018-05-09T03:21:36.596Z,93.00
2018-05-09T03:24:03.153Z,93.20
2018-05-09T03:26:30.250Z,92.90
2018-05-09T03:28:56.578Z,92.80
2018-05-09T03:31:22.907Z,92.70
2018-05-09T03:33:49.394Z,92.60
2018-05-09T03:36:16.549Z,93.60
2018-05-09T03:38:43.642Z,93.60
2018-05-09T03:41:10.067Z,93.60
2018-05-09T03:43:36.439Z,93.40
2018-05-09T03:46:02.831Z,93.00
2018-05-09T03:48:29.227Z,92.90
2018-05-09T03:50:55.617Z,93.20
2018-05-09T03:53:22.044Z,93.30
2018-05-09T03:55:48.347Z,93.40
2018-05-09T03:58:14.691Z,93.30
2018-05-09T04:00:41.017Z,93.30
2018-05-09T04:03:19.765Z,93.30
2018-05-09T04:05:58.297Z,93.30
2018-05-09T04:08:36.906Z,93.20
2018-05-09T04:11:04.244Z,93.30
2018-05-09T04:13:30.644Z,93.30
2018-05-09T04:15:57.043Z,93.60
2018-05-09T04:18:23.450Z,93.70
2018-05-09T04:20:49.808Z,93.60
2018-05-09T04:23:16.979Z,93.90
2018-05-09T04:25:44.099Z,94.00
2018-05-09T04:28:10.491Z,93.90
2018-05-09T04:30:36.892Z,93.80
2018-05-09T04:33:04.109Z,93.80
2018-05-09T04:35:30.724Z,93.60
2018-05-09T04:37:57.088Z,93.50
2018-05-09T04:40:24.252Z,93.80
2018-05-09T04:42:50.643Z,93.80
2018-05-09T04:45:16.995Z,93.80
2018-05-09T04:47:43.410Z,93.90
2018-05-09T04:50:09.866Z,94.00
2018-05-09T04:52:36.448Z,94.00
2018-05-09T04:55:03.011Z,94.10
2018-05-09T04:57:29.456Z,94.40
2018-05-09T04:59:55.871Z,94.20
2018-05-09T05:02:22.174Z,94.10
2018-05-09T05:04:49.197Z,93.80
2018-05-09T05:07:15.520Z,93.80
2018-05-09T05:09:42.809Z,93.50
2018-05-09T05:12:09.875Z,93.10
2018-05-09T05:14:36.192Z,93.10
2018-05-09T05:17:02.511Z,93.30
2018-05-09T05:19:28.809Z,93.30
2018-05-09T05:21:55.100Z,93.30
2018-05-09T05:24:21.422Z,93.20
2018-05-09T05:26:47.736Z,92.80
2018-05-09T05:29:14.118Z,92.40
2018-05-09T05:31:40.437Z,92.20
2018-05-09T05:34:06.744Z,92.40
2018-05-09T05:36:33.084Z,92.30
2018-05-09T05:38:59.407Z,92.00
2018-05-09T05:41:26.444Z,92.00
2018-05-09T05:43:53.484Z,92.00
2018-05-09T05:46:20.529Z,91.80
2018-05-09T05:48:47.603Z,91.10
2018-05-09T05:51:14.652Z,91.10
2018-05-09T05:53:40.994Z,91.00
2018-05-09T05:56:07.402Z,90.90
2018-05-09T05:58:33.665Z,90.50
2018-05-09T06:00:59.993Z,90.80
2018-05-09T06:03:26.303Z,90.80
2018-05-09T06:05:52.625Z,91.40
2018-05-09T06:08:20.117Z,90.40
2018-05-09T06:10:47.238Z,90.10
2018-05-09T06:13:13.583Z,90.10
2018-05-09T06:15:39.866Z,89.60
2018-05-09T06:18:06.175Z,89.50
2018-05-09T06:20:32.501Z,88.60
2018-05-09T06:22:58.801Z,86.40
2018-05-09T06:25:25.848Z,71.10
2018-05-09T06:27:52.156Z,71.10
2018-05-09T06:30:19.238Z,62.10
2018-05-09T06:32:45.667Z,62.10
2018-05-09T06:35:12.011Z,60.30
2018-05-09T06:37:38.369Z,58.30
2018-05-09T06:40:05.383Z,56.60
2018-05-09T06:42:31.720Z,56.60
2018-05-09T06:44:58.005Z,56.50
2018-05-09T06:47:24.339Z,55.70
2018-05-09T06:49:50.651Z,55.60
2018-05-09T06:52:16.967Z,53.70
2018-05-09T06:54:43.337Z,53.10
2018-05-09T06:57:10.380Z,53.40
2018-05-09T06:59:37.433Z,54.10
2018-05-09T07:02:04.647Z,52.80
2018-05-09T07:04:30.981Z,52.80
2018-05-09T07:06:57.537Z,51.10
2018-05-09T07:09:23.960Z,51.70
2018-05-09T07:11:50.364Z,50.10
2018-05-09T07:14:16.937Z,49.70
2018-05-09T07:26:23.288Z,48.90
2018-05-09T07:28:50.519Z,48.10
2018-05-09T07:31:16.889Z,48.10
2018-05-09T07:33:44.142Z,46.00
2018-05-09T07:36:10.593Z,45.90
2018-05-09T07:38:37.268Z,44.50
2018-05-09T07:41:03.667Z,43.10
2018-05-09T07:43:30.043Z,43.20
2018-05-09T07:45:56.647Z,42.50
2018-05-09T07:48:23.021Z,41.80
2018-05-09T07:50:49.500Z,42.60
2018-05-09T07:53:15.902Z,41.00
2018-05-09T07:55:42.995Z,41.40
2018-05-09T07:58:09.439Z,41.40
2018-05-09T08:00:35.838Z,40.60
2018-05-09T08:03:02.196Z,41.10
2018-05-09T08:05:28.688Z,40.00
2018-05-09T08:07:55.793Z,40.80
2018-05-09T08:10:22.104Z,40.90
2018-05-09T08:12:48.494Z,40.90
2018-05-09T08:15:14.807Z,40.40
2018-05-09T08:17:41.369Z,41.90
2018-05-09T08:20:07.809Z,41.70
2018-05-09T08:22:34.157Z,40.50
2018-05-09T08:25:00.510Z,39.70
2018-05-09T08:27:26.828Z,41.90
2018-05-09T08:29:53.152Z,40.20
2018-05-09T08:32:19.448Z,41.20
2018-05-09T08:34:46.495Z,39.30
2018-05-09T08:37:13.530Z,38.60
2018-05-09T08:39:39.863Z,38.50
2018-05-09T08:42:06.179Z,39.90
2018-05-09T08:44:32.481Z,40.30
2018-05-09T08:46:58.750Z,41.50
2018-05-09T08:49:25.096Z,42.10
2018-05-09T08:51:52.125Z,41.20
2018-05-09T08:54:18.477Z,41.20
2018-05-09T08:56:45.540Z,40.20
2018-05-09T08:59:11.863Z,40.20
2018-05-09T09:01:38.944Z,41.20
2018-05-09T09:04:05.350Z,41.10
2018-05-09T09:06:32.515Z,40.40
2018-05-09T09:08:58.787Z,40.40
2018-05-09T09:11:25.112Z,40.70
2018-05-09T09:13:51.418Z,40.20
2018-05-09T09:16:17.725Z,40.70
2018-05-09T09:18:44.878Z,38.50
2018-05-09T09:21:11.090Z,38.40
2018-05-09T09:23:37.387Z,39.30
2018-05-09T09:26:03.731Z,40.70
2018-05-09T09:28:30.051Z,39.30
2018-05-09T09:30:56.378Z,39.30
2018-05-09T09:33:22.690Z,39.00
2018-05-09T09:35:48.991Z,38.80
2018-05-09T09:38:16.040Z,39.10
2018-05-09T09:40:42.324Z,39.10
2018-05-09T09:43:08.664Z,39.70
2018-05-09T09:45:34.959Z,38.70
2018-05-09T09:48:01.254Z,37.60
2018-05-09T09:50:27.562Z,38.10
2018-05-09T09:52:53.855Z,37.90
2018-05-09T09:55:20.165Z,37.40
2018-05-09T09:57:46.485Z,38.50
2018-05-09T10:00:12.817Z,40.10
2018-05-09T10:02:39.834Z,40.00
2018-05-09T10:05:06.118Z,40.00
2018-05-09T10:07:32.421Z,39.30
2018-05-09T10:09:59.451Z,39.20
2018-05-09T10:12:27.219Z,38.50
2018-05-09T10:14:53.518Z,38.50
2018-05-09T10:17:19.808Z,38.10
2018-05-09T10:19:46.136Z,37.70
2018-05-09T10:22:12.437Z,38.50
2018-05-09T10:24:39.502Z,38.60
2018-05-09T10:27:06.818Z,38.10
2018-05-09T10:29:33.107Z,38.00
2018-05-09T10:31:59.428Z,39.10
2018-05-09T10:34:25.756Z,38.60
2018-05-09T10:36:52.061Z,38.20
2018-05-09T10:39:19.114Z,38.10
2018-05-09T10:41:46.166Z,38.50
2018-05-09T10:44:13.222Z,39.80
2018-05-09T10:46:40.290Z,40.30
2018-05-09T10:49:06.583Z,40.20
2018-05-09T10:51:32.903Z,39.00
2018-05-09T10:53:59.200Z,38.60
2018-05-09T10:56:25.536Z,38.70
2018-05-09T10:58:51.878Z,39.70
2018-05-09T11:01:18.192Z,40.40
2018-05-09T11:03:44.524Z,40.30
2018-05-09T11:06:10.807Z,39.40
2018-05-09T11:08:37.209Z,41.20
2018-05-09T11:11:03.544Z,43.00
2018-05-09T11:13:29.907Z,43.50
2018-05-09T11:15:57.044Z,44.90
2018-05-09T11:18:23.347Z,44.90
2018-05-09T11:20:49.653Z,44.70
2018-05-09T11:23:15.934Z,46.70
2018-05-09T11:25:42.235Z,47.60
2018-05-09T11:28:08.551Z,48.60
2018-05-09T11:30:34.851Z,46.90
2018-05-09T11:33:01.157Z,48.90
2018-05-09T11:35:27.455Z,48.00
2018-05-09T11:37:53.742Z,48.30
2018-05-09T11:40:20.852Z,46.90
2018-05-09T11:42:48.156Z,46.80
2018-05-09T11:45:15.077Z,49.10
2018-05-09T11:47:41.596Z,47.30
2018-05-09T11:50:07.915Z,48.50
2018-05-09T11:52:34.336Z,49.50
2018-05-09T11:55:00.684Z,49.60
2018-05-09T11:57:27.100Z,48.90
2018-05-09T11:59:53.472Z,49.70
2018-05-09T12:02:20.826Z,49.50
2018-05-09T12:04:47.245Z,49.50
2018-05-09T12:07:13.646Z,49.30
2018-05-09T12:22:35.088Z,48.30
2018-05-09T12:25:01.600Z,47.60
2018-05-09T12:27:28.098Z,48.00
2018-05-09T12:29:54.577Z,47.40
2018-05-09T12:32:21.134Z,47.30
2018-05-09T12:34:47.538Z,48.70
2018-05-09T12:37:14.012Z,48.10
2018-05-09T12:39:41.120Z,48.00
2018-05-09T12:42:07.510Z,48.00
2018-05-09T12:44:34.004Z,48.90
2018-05-09T12:47:00.381Z,48.90
2018-05-09T12:49:26.821Z,49.50
2018-05-09T12:51:53.228Z,49.60
2018-05-09T12:54:19.755Z,49.00
2018-05-09T12:56:46.057Z,47.00
2018-05-09T12:59:12.408Z,46.50
2018-05-09T13:01:38.827Z,45.10
2018-05-09T13:04:05.136Z,45.80
2018-05-09T13:06:31.528Z,45.20
2018-05-09T13:08:57.835Z,46.00
2018-05-09T13:11:24.127Z,46.70
2018-05-09T13:13:50.429Z,46.90
2018-05-09T13:16:16.731Z,48.00
2018-05-09T13:18:43.072Z,47.90
2018-05-09T13:21:09.385Z,46.50
2018-05-09T13:23:35.672Z,45.90
2018-05-09T13:26:01.991Z,46.00
2018-05-09T13:28:28.288Z,45.40
2018-05-09T13:30:54.605Z,46.10
2018-05-09T13:33:20.947Z,46.30
2018-05-09T13:35:47.239Z,47.50
2018-05-09T13:38:13.532Z,44.30
2018-05-09T13:40:40.582Z,46.20
2018-05-09T13:43:06.893Z,46.10
2018-05-09T13:45:33.198Z,43.30
2018-05-09T13:47:59.489Z,42.50
2018-05-09T13:50:25.790Z,43.20
2018-05-09T13:52:52.100Z,46.60
2018-05-09T13:55:18.387Z,46.90
2018-05-09T13:57:44.693Z,45.20
2018-05-09T14:00:12.813Z,46.70
2018-05-09T14:02:39.309Z,46.70
2018-05-09T14:05:05.591Z,46.50
2018-05-09T14:07:31.917Z,47.10
2018-05-09T14:09:58.254Z,46.60
2018-05-09T14:12:24.556Z,46.80
2018-05-09T14:14:50.911Z,46.70
2018-05-09T14:17:17.188Z,47.80
2018-05-09T14:19:44.236Z,50.20
2018-05-09T14:22:11.286Z,50.70
2018-05-09T14:24:38.356Z,49.70
2018-05-09T14:27:04.647Z,49.60
2018-05-09T14:29:31.691Z,50.00
2018-05-09T14:31:57.986Z,50.00
2018-05-09T14:34:24.275Z,51.90
2018-05-09T14:36:51.359Z,52.80
2018-05-09T14:39:19.568Z,52.80
2018-05-09T14:41:45.882Z,52.40
2018-05-09T14:44:12.188Z,50.90
2018-05-09T14:46:38.544Z,50.60
2018-05-09T14:49:05.557Z,50.10
2018-05-09T14:51:31.835Z,50.10
2018-05-09T14:53:58.141Z,48.10
2018-05-09T14:56:24.449Z,50.00
2018-05-09T14:58:50.775Z,49.80
2018-05-09T15:01:17.150Z,47.60
2018-05-09T15:03:43.493Z,47.50
2018-05-09T15:06:09.819Z,48.50
2018-05-09T15:08:36.153Z,48.40
2018-05-09T15:11:02.449Z,47.80
2018-05-09T15:13:28.769Z,47.70
2018-05-09T15:15:55.091Z,46.90
2018-05-09T15:18:21.385Z,46.40
2018-05-09T15:20:48.071Z,46.20
2018-05-09T15:23:14.379Z,47.00
2018-05-09T15:25:41.450Z,47.80
2018-05-09T15:28:08.076Z,47.80
2018-05-09T15:30:34.418Z,47.70
2018-05-09T15:33:00.707Z,49.50
2018-05-09T15:35:27.739Z,51.00
2018-05-09T15:37:54.045Z,50.70
2018-05-09T15:40:20.347Z,51.00
2018-05-09T15:42:46.661Z,51.40
2018-05-09T15:45:13.719Z,51.60
2018-05-09T15:47:40.755Z,52.40
2018-05-09T15:50:07.842Z,53.40
2018-05-09T15:52:34.147Z,53.30
2018-05-09T15:55:00.472Z,53.30
2018-05-09T15:57:27.510Z,54.50
2018-05-09T15:59:54.577Z,54.20
2018-05-09T16:02:20.894Z,54.20
2018-05-09T16:04:47.193Z,53.80
2018-05-09T16:07:13.492Z,53.30
2018-05-09T16:09:39.802Z,53.60
2018-05-09T16:12:06.091Z,54.50
2018-05-09T16:14:32.412Z,55.00
2018-05-09T16:16:58.721Z,54.70
2018-05-09T16:19:25.020Z,55.30
2018-05-09T16:21:51.352Z,54.80
2018-05-09T16:24:17.675Z,54.30
2018-05-09T16:26:44.009Z,53.80
2018-05-09T16:29:10.306Z,55.20
2018-05-09T16:31:36.602Z,55.20
2018-05-09T16:34:02.934Z,55.10
2018-05-09T16:36:29.256Z,54.90
2018-05-09T16:38:55.569Z,55.40
2018-05-09T16:41:21.888Z,56.50
2018-05-09T16:43:49.024Z,56.40
2018-05-09T16:46:16.111Z,56.30
2018-05-09T16:48:42.445Z,56.30
2018-05-09T16:51:08.865Z,56.90
2018-05-09T16:53:35.262Z,57.70
2018-05-09T16:56:01.695Z,57.50
2018-05-09T16:58:28.029Z,57.50
2018-05-09T17:00:54.395Z,58.20
2018-05-09T17:03:20.703Z,58.50
2018-05-09T17:05:47.794Z,58.90
2018-05-09T17:08:14.081Z,58.80
2018-05-09T17:10:41.267Z,59.70
2018-05-09T17:13:07.657Z,59.60
2018-05-09T17:15:34.049Z,60.20
2018-05-09T17:18:00.529Z,61.90
2018-05-09T17:20:26.813Z,61.70
2018-05-09T17:22:53.142Z,62.10
2018-05-09T17:25:19.850Z,62.30
2018-05-09T17:27:46.221Z,61.70
2018-05-09T17:30:12.543Z,62.10
2018-05-09T17:32:38.841Z,61.90
2018-05-09T17:35:06.209Z,63.50
2018-05-09T17:37:32.569Z,63.50
2018-05-09T17:39:58.898Z,63.60
2018-05-09T17:42:25.320Z,63.80
2018-05-09T17:44:51.630Z,64.50
2018-05-09T17:47:17.914Z,63.40
2018-05-09T17:49:44.230Z,63.80
2018-05-09T17:52:10.552Z,64.90
2018-05-09T17:54:36.924Z,65.70
2018-05-09T17:57:03.234Z,66.80
2018-05-09T17:59:29.549Z,67.80
2018-05-09T18:01:55.892Z,68.50
2018-05-09T18:04:22.208Z,68.90
2018-05-09T18:06:48.541Z,69.20
2018-05-09T18:09:14.905Z,70.40
2018-05-09T18:11:41.223Z,71.50
2018-05-09T18:14:07.539Z,71.30
2018-05-09T18:16:34.601Z,73.00
2018-05-09T18:19:04.329Z,73.00
2018-05-09T18:21:30.645Z,74.40
2018-05-09T18:23:56.964Z,73.40
2018-05-09T18:26:23.293Z,73.60
2018-05-09T18:28:49.711Z,74.50
2018-05-09T18:31:16.005Z,74.60
2018-05-09T18:33:43.059Z,76.30
2018-05-09T18:36:09.431Z,76.30
2018-05-09T18:38:35.758Z,76.00
2018-05-09T18:41:02.128Z,76.80
2018-05-09T18:43:28.516Z,77.10
2018-05-09T18:45:55.153Z,77.90
2018-05-09T18:48:22.650Z,79.30
2018-05-09T18:50:49.088Z,79.40
2018-05-09T18:53:15.606Z,80.00
2018-05-09T18:55:42.133Z,79.70
2018-05-09T18:58:08.679Z,80.00
2018-05-09T19:00:35.175Z,79.90
2018-05-09T19:03:01.633Z,80.70
2018-05-09T19:05:28.238Z,81.30
2018-05-09T19:07:54.763Z,81.40
2018-05-09T19:10:21.140Z,82.00
2018-05-09T19:12:47.602Z,82.10
2018-05-09T19:15:14.050Z,82.20
2018-05-09T19:17:40.595Z,82.30
2018-05-09T19:20:08.573Z,82.70
2018-05-09T19:22:34.984Z,82.70
2018-05-09T19:25:01.808Z,83.30
2018-05-09T19:27:28.362Z,83.40
2018-05-09T19:29:54.876Z,83.00
2018-05-09T19:32:21.371Z,82.80
2018-05-09T19:34:47.940Z,82.60
2018-05-09T19:37:14.421Z,83.60
2018-05-09T19:39:41.001Z,83.80
2018-05-09T19:42:07.484Z,83.70
2018-05-09T19:44:34.077Z,83.70
2018-05-09T19:47:00.671Z,84.10
2018-05-09T19:49:27.345Z,84.20
2018-05-09T19:51:54.683Z,84.80
2018-05-09T19:54:21.271Z,84.60
2018-05-09T19:56:48.005Z,84.70
2018-05-09T19:59:14.535Z,84.90
2018-05-09T20:01:41.193Z,84.70
2018-05-09T20:04:09.472Z,85.50
2018-05-09T20:06:37.113Z,86.10
2018-05-09T20:09:03.956Z,86.10
2018-05-09T20:11:30.394Z,86.20
2018-05-09T20:13:57.176Z,86.80
2018-05-09T20:16:25.566Z,86.80
2018-05-09T20:18:51.942Z,85.90
2018-05-09T20:21:18.366Z,86.30
2018-05-09T20:23:45.013Z,86.00
2018-05-09T20:26:11.670Z,86.10
2018-05-09T20:28:38.164Z,86.50
2018-05-09T20:34:21.513Z,88.60
2018-05-09T20:36:48.203Z,88.30
2018-05-09T20:39:15.522Z,88.00
2018-05-09T20:41:42.230Z,88.10
2018-05-09T20:44:10.038Z,88.10
2018-05-09T20:46:36.424Z,87.50
2018-05-09T20:49:02.887Z,87.80
2018-05-09T20:51:41.505Z,88.20
2018-05-09T20:54:07.843Z,88.00
2018-05-09T20:56:34.283Z,88.00
2018-05-09T20:59:00.779Z,88.60
2018-05-09T21:01:39.579Z,89.10
2018-05-09T21:04:05.910Z,89.50
2018-05-09T21:06:33.297Z,90.10
2018-05-09T21:08:59.741Z,89.60
2018-05-09T21:11:26.307Z,90.00
2018-05-09T21:13:52.960Z,90.00
2018-05-09T21:16:19.439Z,90.10
2018-05-09T21:18:45.997Z,90.10
2018-05-09T21:21:12.476Z,90.00
2018-05-09T21:23:40.668Z,89.90
2018-05-09T21:26:07.896Z,90.20
2018-05-09T21:28:34.328Z,90.10
2018-05-09T21:31:01.584Z,90.80
2018-05-09T21:33:28.083Z,90.70
2018-05-09T21:35:54.624Z,91.10
2018-05-09T21:38:21.073Z,91.30
2018-05-09T21:40:47.674Z,91.20
2018-05-09T21:43:14.085Z,91.00
2018-05-09T21:45:41.239Z,91.10
2018-05-09T21:48:08.387Z,91.40
2018-05-09T21:50:34.769Z,91.40
2018-05-09T21:53:01.241Z,91.40
2018-05-09T21:55:27.654Z,91.30
2018-05-09T21:57:54.142Z,90.60
2018-05-09T22:00:20.564Z,90.40
2018-05-09T22:02:47.042Z,89.70
2018-05-09T22:05:13.386Z,89.60
2018-05-09T22:07:39.849Z,90.00
2018-05-09T22:10:06.978Z,90.00
2018-05-09T22:12:33.334Z,90.00
2018-05-09T22:15:00.499Z,90.50
2018-05-09T22:17:27.689Z,90.70
2018-05-09T22:19:54.165Z,90.70
2018-05-09T22:22:21.379Z,91.10
2018-05-09T22:24:47.800Z,90.80
2018-05-09T22:27:15.019Z,91.30
2018-05-09T22:29:42.260Z,91.40
2018-05-09T22:32:08.713Z,91.40
2018-05-09T22:34:35.093Z,91.20
2018-05-09T22:37:01.641Z,91.00
2018-05-09T22:39:28.123Z,91.30
2018-05-09T22:41:54.812Z,91.20
2018-05-09T22:44:21.515Z,90.70
2018-05-09T22:46:48.133Z,90.50
2018-05-09T22:49:14.541Z,90.80
2018-05-09T22:51:41.098Z,90.80
2018-05-09T22:54:08.250Z,90.80
2018-05-09T22:56:34.622Z,90.80
2018-05-09T22:59:01.087Z,91.20
2018-05-09T23:01:27.456Z,91.00
2018-05-09T23:03:53.789Z,91.10
2018-05-09T23:06:20.247Z,91.20
2018-05-09T23:08:46.683Z,91.40
2018-05-09T23:11:13.069Z,90.90
2018-05-09T23:13:39.507Z,91.00
2018-05-09T23:16:06.710Z,90.90
2018-05-09T23:18:33.195Z,90.90
2018-05-09T23:21:00.374Z,90.70
2018-05-09T23:23:26.822Z,90.60
2018-05-09T23:25:53.471Z,90.40
2018-05-09T23:28:19.962Z,90.20
2018-05-09T23:30:46.288Z,90.70
2018-05-09T23:33:12.832Z,90.40
2018-05-09T23:35:39.288Z,90.30
2018-05-09T23:38:06.493Z,90.10
2018-05-09T23:40:33.113Z,90.20
2018-05-09T23:42:59.616Z,90.20
2018-05-09T23:45:26.102Z,90.00
2018-05-09T23:47:53.230Z,90.10
2018-05-09T23:50:19.806Z,90.10
2018-05-09T23:52:46.124Z,89.40
2018-05-09T23:55:12.608Z,89.80
2018-05-09T23:57:39.073Z,90.00
